createdAt,value
2019-01-29T00:02:24.917Z,6.90
2019-01-29T00:04:53.224Z,6.90
2019-01-29T00:07:21.614Z,6.90
2019-01-29T00:09:50.013Z,6.90
2019-01-29T00:12:18.396Z,6.80
2019-01-29T00:14:46.821Z,6.80
2019-01-29T00:17:15.278Z,6.80
2019-01-29T00:19:43.662Z,6.80
2019-01-29T00:22:12.021Z,6.70
2019-01-29T00:24:40.343Z,6.70
2019-01-29T00:27:08.719Z,6.80
2019-01-29T00:29:37.089Z,6.80
2019-01-29T00:32:05.487Z,6.80
2019-01-29T00:34:33.870Z,6.80
2019-01-29T00:37:02.247Z,6.80
2019-01-29T00:39:30.716Z,6.70
2019-01-29T00:41:59.093Z,6.70
2019-01-29T00:44:27.495Z,6.60
2019-01-29T00:46:55.990Z,6.60
2019-01-29T00:49:24.360Z,6.50
2019-01-29T00:51:52.770Z,6.50
2019-01-29T00:54:21.169Z,6.50
2019-01-29T00:56:49.545Z,6.50
2019-01-29T00:59:17.850Z,6.40
2019-01-29T01:01:46.236Z,6.50
2019-01-29T01:04:14.624Z,6.40
2019-01-29T01:06:43.066Z,6.30
2019-01-29T01:09:11.351Z,6.30
2019-01-29T01:11:39.672Z,6.30
2019-01-29T01:14:08.029Z,6.30
2019-01-29T01:16:36.435Z,6.20
2019-01-29T01:19:04.795Z,6.30
2019-01-29T01:21:33.178Z,6.30
2019-01-29T01:24:01.538Z,6.30
2019-01-29T01:26:30.052Z,6.20
2019-01-29T01:28:58.403Z,6.20
2019-01-29T01:31:26.771Z,6.30
2019-01-29T01:33:55.063Z,6.30
2019-01-29T01:36:23.366Z,6.30
2019-01-29T01:38:51.765Z,6.20
2019-01-29T01:41:20.154Z,6.20
2019-01-29T01:43:48.532Z,6.20
2019-01-29T01:46:16.849Z,6.10
2019-01-29T01:48:45.225Z,6.10
2019-01-29T01:51:13.610Z,6.00
2019-01-29T01:53:42.000Z,5.90
2019-01-29T01:56:10.354Z,5.90
2019-01-29T01:58:38.646Z,5.80
2019-01-29T02:01:06.969Z,5.90
2019-01-29T02:03:35.352Z,5.80
2019-01-29T02:06:03.720Z,5.70
2019-01-29T02:08:32.013Z,5.70
2019-01-29T02:11:00.407Z,5.70
2019-01-29T02:13:28.756Z,5.70
2019-01-29T02:15:57.160Z,5.60
2019-01-29T02:18:25.515Z,5.60
2019-01-29T02:20:53.819Z,5.60
2019-01-29T02:23:22.211Z,5.60
2019-01-29T02:25:50.600Z,5.60
2019-01-29T02:28:18.913Z,5.60
2019-01-29T02:30:47.270Z,5.60
2019-01-29T02:33:15.770Z,5.60
2019-01-29T02:35:44.154Z,5.60
2019-01-29T02:38:12.519Z,5.50
2019-01-29T02:40:40.827Z,5.50
2019-01-29T02:43:09.215Z,5.60
2019-01-29T02:45:37.614Z,5.60
2019-01-29T02:48:06.007Z,5.50
2019-01-29T02:50:34.385Z,5.50
2019-01-29T02:53:02.750Z,5.50
2019-01-29T02:55:31.054Z,5.60
2019-01-29T02:57:59.428Z,5.50
2019-01-29T03:00:28.094Z,5.50
2019-01-29T03:02:56.388Z,5.50
2019-01-29T03:05:24.685Z,5.50
2019-01-29T03:07:53.066Z,5.50
2019-01-29T03:10:23.514Z,5.50
2019-01-29T03:12:51.787Z,5.50
2019-01-29T03:15:25.330Z,5.50
2019-01-29T03:17:53.726Z,5.50
2019-01-29T03:20:22.102Z,5.60
2019-01-29T03:22:50.491Z,5.50
2019-01-29T03:25:18.860Z,5.60
2019-01-29T03:27:47.250Z,5.50
2019-01-29T03:30:17.773Z,5.50
2019-01-29T03:32:46.166Z,5.60
2019-01-29T03:35:14.542Z,5.60
2019-01-29T03:37:42.912Z,5.60
2019-01-29T03:40:13.957Z,5.70
2019-01-29T03:42:42.450Z,5.70
2019-01-29T03:45:13.499Z,5.70
2019-01-29T03:47:41.962Z,5.70
2019-01-29T03:50:13.531Z,5.80
2019-01-29T03:52:41.872Z,5.80
2019-01-29T03:55:10.543Z,5.90
2019-01-29T03:57:38.913Z,5.90
2019-01-29T04:00:10.663Z,6.00
2019-01-29T04:02:39.035Z,6.00
2019-01-29T04:05:07.408Z,6.00
2019-01-29T04:07:35.776Z,6.10
2019-01-29T04:10:06.420Z,6.20
2019-01-29T04:12:34.785Z,6.10
2019-01-29T04:15:03.527Z,6.20
2019-01-29T04:17:31.897Z,6.20
2019-01-29T04:20:00.287Z,6.20
2019-01-29T04:22:28.655Z,6.20
2019-01-29T04:24:56.956Z,6.30
2019-01-29T04:27:25.335Z,6.30
2019-01-29T04:29:54.540Z,6.30
2019-01-29T04:32:22.916Z,6.40
2019-01-29T04:34:51.298Z,6.40
2019-01-29T04:37:19.682Z,6.50
2019-01-29T04:39:48.051Z,6.50
2019-01-29T04:42:16.434Z,6.50
2019-01-29T04:44:44.808Z,6.60
2019-01-29T04:47:13.190Z,6.60
2019-01-29T04:49:41.542Z,6.70
2019-01-29T04:52:09.926Z,6.70
2019-01-29T04:54:38.211Z,6.70
2019-01-29T04:57:06.484Z,6.80
2019-01-29T04:59:34.871Z,6.80
2019-01-29T05:02:03.307Z,6.90
2019-01-29T05:04:31.685Z,6.90
2019-01-29T05:07:00.057Z,6.90
2019-01-29T05:09:28.471Z,7.00
2019-01-29T05:11:56.897Z,6.90
2019-01-29T05:14:25.258Z,7.00
2019-01-29T05:16:53.656Z,7.00
2019-01-29T05:19:22.053Z,7.00
2019-01-29T05:21:50.451Z,7.00
2019-01-29T05:24:18.829Z,7.00
2019-01-29T05:26:47.139Z,7.00
2019-01-29T05:29:15.490Z,7.00
2019-01-29T05:31:43.826Z,6.90
2019-01-29T05:34:12.200Z,6.90
2019-01-29T05:36:40.575Z,6.90
2019-01-29T05:39:09.208Z,6.90
2019-01-29T05:41:37.537Z,6.90
2019-01-29T05:44:05.917Z,6.80
2019-01-29T05:46:34.318Z,6.80
2019-01-29T05:49:02.703Z,6.80
2019-01-29T05:51:31.093Z,6.80
2019-01-29T05:53:59.471Z,6.80
2019-01-29T05:56:27.771Z,6.80
2019-01-29T05:58:56.138Z,6.80
2019-01-29T06:01:24.524Z,6.80
2019-01-29T06:03:52.889Z,6.80
2019-01-29T06:06:21.173Z,6.80
2019-01-29T06:08:49.683Z,6.80
2019-01-29T06:11:17.994Z,6.80
2019-01-29T06:13:46.444Z,6.80
2019-01-29T06:16:14.795Z,6.80
2019-01-29T06:18:43.195Z,6.80
2019-01-29T06:21:11.561Z,6.80
2019-01-29T06:23:40.058Z,6.80
2019-01-29T06:26:08.514Z,6.80
2019-01-29T06:28:36.947Z,6.80
2019-01-29T06:31:05.235Z,6.80
2019-01-29T06:33:33.512Z,6.80
2019-01-29T06:36:01.897Z,6.80
2019-01-29T06:38:30.261Z,6.80
2019-01-29T06:40:58.633Z,6.80
2019-01-29T06:43:26.943Z,6.80
2019-01-29T06:45:55.301Z,6.80
2019-01-29T06:48:23.655Z,6.90
2019-01-29T06:50:52.031Z,6.90
2019-01-29T06:53:20.363Z,6.90
2019-01-29T06:55:48.768Z,6.90
2019-01-29T06:58:17.131Z,6.90
2019-01-29T07:00:45.490Z,6.90
2019-01-29T07:03:13.858Z,6.90
2019-01-29T07:05:42.259Z,7.00
2019-01-29T07:08:10.626Z,6.90
2019-01-29T07:10:38.935Z,7.00
2019-01-29T07:13:07.337Z,6.90
2019-01-29T07:15:52.854Z,6.90
2019-01-29T07:18:22.893Z,6.90
2019-01-29T07:20:51.284Z,6.90
2019-01-29T07:23:19.657Z,6.90
2019-01-29T07:25:48.107Z,6.90
2019-01-29T07:28:16.494Z,6.90
2019-01-29T07:30:44.892Z,6.90
2019-01-29T07:33:13.280Z,6.90
2019-01-29T07:35:41.680Z,6.90
2019-01-29T07:38:10.127Z,6.90
2019-01-29T07:40:38.535Z,6.90
2019-01-29T07:43:06.929Z,6.90
2019-01-29T07:45:35.306Z,6.90
2019-01-29T07:48:03.690Z,6.90
2019-01-29T07:50:32.111Z,6.90
2019-01-29T07:53:00.451Z,6.90
2019-01-29T07:55:28.773Z,6.90
2019-01-29T07:57:57.205Z,6.90
2019-01-29T08:00:25.582Z,6.90
2019-01-29T08:02:53.962Z,6.90
2019-01-29T08:05:22.296Z,6.90
2019-01-29T08:07:50.672Z,6.90
2019-01-29T08:10:19.020Z,7.00
2019-01-29T08:12:47.406Z,7.00
2019-01-29T08:15:19.142Z,7.00
2019-01-29T08:17:47.568Z,6.90
2019-01-29T08:20:16.915Z,6.90
2019-01-29T08:22:45.304Z,6.90
2019-01-29T08:25:13.684Z,6.90
2019-01-29T08:27:42.041Z,6.90
2019-01-29T08:30:15.702Z,6.90
2019-01-29T08:32:44.134Z,7.00
2019-01-29T08:35:13.940Z,7.00
2019-01-29T08:37:42.267Z,7.00
2019-01-29T08:40:12.507Z,7.00
2019-01-29T08:42:40.910Z,7.00
2019-01-29T08:45:17.702Z,7.00
2019-01-29T08:47:46.154Z,7.00
2019-01-29T08:50:24.916Z,7.00
2019-01-29T08:52:53.279Z,7.00
2019-01-29T08:55:21.650Z,7.00
2019-01-29T08:57:49.994Z,6.90
2019-01-29T09:00:22.149Z,6.90
2019-01-29T09:02:50.470Z,6.90
2019-01-29T09:05:18.872Z,6.90
2019-01-29T09:07:47.250Z,6.90
2019-01-29T09:10:17.824Z,6.90
2019-01-29T09:12:46.204Z,6.90
2019-01-29T09:15:18.823Z,6.90
2019-01-29T09:17:48.986Z,6.90
2019-01-29T09:20:23.870Z,6.90
2019-01-29T09:22:52.244Z,6.90
2019-01-29T09:25:22.725Z,7.00
2019-01-29T09:27:50.774Z,7.00
2019-01-29T09:30:22.685Z,7.10
2019-01-29T09:32:51.047Z,7.10
2019-01-29T09:35:19.418Z,7.20
2019-01-29T09:37:47.766Z,7.20
2019-01-29T09:40:21.158Z,7.30
2019-01-29T09:42:49.600Z,7.30
2019-01-29T09:45:19.428Z,7.40
2019-01-29T09:47:47.834Z,7.30
2019-01-29T09:50:23.703Z,7.40
2019-01-29T09:52:52.504Z,7.40
2019-01-29T09:55:29.136Z,7.40
2019-01-29T09:57:52.550Z,7.50
2019-01-29T10:00:29.379Z,7.50
2019-01-29T10:02:57.715Z,7.60
2019-01-29T10:05:26.039Z,7.60
2019-01-29T10:07:54.360Z,7.60
2019-01-29T10:10:22.702Z,7.70
2019-01-29T10:12:50.999Z,7.70
2019-01-29T10:15:47.477Z,7.70
2019-01-29T10:18:15.933Z,7.70
2019-01-29T10:20:44.301Z,7.70
2019-01-29T10:23:12.693Z,7.80
2019-01-29T10:25:41.080Z,7.70
2019-01-29T10:28:09.463Z,7.70
2019-01-29T10:30:37.740Z,7.70
2019-01-29T10:33:06.049Z,7.70
2019-01-29T10:35:34.427Z,7.70
2019-01-29T10:38:02.801Z,7.70
2019-01-29T10:40:31.111Z,7.80
2019-01-29T10:42:59.491Z,7.70
2019-01-29T10:45:29.435Z,7.70
2019-01-29T10:47:58.010Z,7.70
2019-01-29T10:50:28.917Z,7.70
2019-01-29T10:52:57.292Z,7.70
2019-01-29T10:55:25.674Z,7.70
2019-01-29T10:57:54.058Z,7.70
2019-01-29T11:00:25.779Z,7.70
2019-01-29T11:02:54.220Z,7.70
2019-01-29T11:05:23.085Z,7.70
2019-01-29T11:07:51.368Z,7.70
2019-01-29T11:10:20.918Z,7.70
2019-01-29T11:12:49.271Z,7.80
2019-01-29T11:15:26.496Z,7.80
2019-01-29T11:17:54.802Z,7.90
2019-01-29T11:20:23.256Z,7.90
2019-01-29T11:22:51.636Z,7.90
2019-01-29T11:25:25.615Z,8.00
2019-01-29T11:27:53.999Z,8.00
2019-01-29T11:30:25.148Z,8.10
2019-01-29T11:32:53.544Z,8.10
2019-01-29T11:35:21.914Z,8.10
2019-01-29T11:37:50.555Z,8.20
2019-01-29T11:40:30.677Z,8.20
2019-01-29T11:42:59.017Z,8.10
2019-01-29T11:45:36.149Z,8.00
2019-01-29T11:48:04.431Z,8.00
2019-01-29T11:50:32.749Z,8.00
2019-01-29T11:53:01.221Z,8.00
2019-01-29T11:55:29.603Z,8.00
2019-01-29T11:57:57.971Z,8.00
2019-01-29T12:00:32.967Z,8.00
2019-01-29T12:03:01.278Z,8.10
2019-01-29T12:05:29.729Z,8.10
2019-01-29T12:07:58.100Z,8.10
2019-01-29T12:10:26.385Z,8.10
2019-01-29T12:12:54.701Z,8.20
2019-01-29T12:15:23.048Z,8.20
2019-01-29T12:17:51.475Z,8.20
2019-01-29T12:20:20.590Z,8.20
2019-01-29T12:22:48.949Z,8.20
2019-01-29T12:25:17.363Z,8.20
2019-01-29T12:27:45.740Z,8.30
2019-01-29T12:30:22.844Z,8.30
2019-01-29T12:32:51.741Z,8.30
2019-01-29T12:35:20.126Z,8.30
2019-01-29T12:37:48.510Z,8.30
2019-01-29T12:40:16.895Z,8.40
2019-01-29T12:42:45.272Z,8.40
2019-01-29T12:45:16.783Z,8.40
2019-01-29T12:47:45.305Z,8.40
2019-01-29T12:50:28.541Z,8.40
2019-01-29T12:52:58.587Z,8.40
2019-01-29T12:55:26.973Z,8.40
2019-01-29T12:57:55.346Z,8.40
2019-01-29T13:00:25.372Z,8.30
2019-01-29T13:02:53.812Z,8.40
2019-01-29T13:05:22.200Z,8.40
2019-01-29T13:07:50.492Z,8.40
2019-01-29T13:10:20.992Z,8.50
2019-01-29T13:12:49.380Z,8.50
2019-01-29T13:15:23.937Z,8.60
2019-01-29T13:17:52.315Z,8.60
2019-01-29T13:20:20.611Z,8.60
2019-01-29T13:22:49.052Z,8.60
2019-01-29T13:25:17.328Z,8.70
2019-01-29T13:27:45.624Z,8.70
2019-01-29T13:30:31.326Z,8.70
2019-01-29T13:32:59.644Z,8.70
2019-01-29T13:35:30.922Z,8.60
2019-01-29T13:37:59.245Z,8.60
2019-01-29T13:40:27.624Z,8.60
2019-01-29T13:42:55.988Z,8.60
2019-01-29T13:45:24.294Z,8.70
2019-01-29T13:47:52.655Z,8.80
2019-01-29T13:50:26.650Z,8.90
2019-01-29T13:52:55.019Z,9.10
2019-01-29T13:55:23.575Z,9.30
2019-01-29T13:57:51.944Z,9.50
2019-01-29T14:00:23.446Z,9.60
2019-01-29T14:02:51.782Z,9.70
2019-01-29T14:05:20.115Z,9.70
2019-01-29T14:07:48.463Z,9.70
2019-01-29T14:10:17.477Z,9.60
2019-01-29T14:12:45.820Z,9.60
2019-01-29T14:15:33.261Z,9.60
2019-01-29T14:18:01.558Z,9.50
2019-01-29T14:20:29.942Z,9.40
2019-01-29T14:22:58.314Z,9.20
2019-01-29T14:25:26.717Z,9.10
2019-01-29T14:27:55.088Z,9.10
2019-01-29T14:30:25.802Z,9.00
2019-01-29T14:32:54.147Z,9.00
2019-01-29T14:35:22.427Z,8.90
2019-01-29T14:38:12.360Z,8.80
2019-01-29T14:40:40.689Z,8.80
2019-01-29T14:43:24.502Z,8.70
2019-01-29T14:45:52.875Z,8.70
2019-01-29T14:48:21.257Z,8.70
2019-01-29T14:50:49.608Z,8.60
2019-01-29T14:53:17.909Z,8.60
2019-01-29T14:55:46.229Z,8.60
2019-01-29T14:58:14.602Z,8.60
2019-01-29T15:00:42.954Z,8.60
2019-01-29T15:03:11.393Z,8.50
2019-01-29T15:05:39.943Z,8.50
2019-01-29T15:08:08.331Z,8.50
2019-01-29T15:10:36.682Z,8.50
2019-01-29T15:13:05.063Z,8.50
2019-01-29T15:15:37.751Z,8.40
2019-01-29T15:18:13.548Z,8.40
2019-01-29T15:20:41.836Z,8.30
2019-01-29T15:23:10.144Z,8.30
2019-01-29T15:25:38.452Z,8.30
2019-01-29T15:28:06.835Z,8.30
2019-01-29T15:30:35.203Z,8.30
2019-01-29T15:33:03.590Z,8.30
2019-01-29T15:35:31.968Z,8.20
2019-01-29T15:38:00.349Z,8.30
2019-01-29T15:40:28.731Z,8.30
2019-01-29T15:42:57.107Z,8.30
2019-01-29T15:45:27.221Z,8.30
2019-01-29T15:47:55.591Z,8.30
2019-01-29T15:50:26.591Z,8.30
2019-01-29T15:52:54.933Z,8.30
2019-01-29T15:55:23.245Z,8.30
2019-01-29T15:57:51.618Z,8.30
2019-01-29T16:00:28.771Z,8.30
2019-01-29T16:02:57.141Z,8.30
2019-01-29T16:05:31.266Z,8.30
2019-01-29T16:07:59.563Z,8.30
2019-01-29T16:10:39.183Z,8.30
2019-01-29T16:13:00.767Z,8.30
2019-01-29T16:15:29.055Z,8.30
2019-01-29T16:17:57.514Z,8.30
2019-01-29T16:20:25.852Z,8.30
2019-01-29T16:22:54.178Z,8.30
2019-01-29T16:25:25.250Z,8.30
2019-01-29T16:27:53.632Z,8.30
2019-01-29T16:30:29.517Z,8.30
2019-01-29T16:32:57.880Z,8.20
2019-01-29T16:35:31.466Z,8.30
2019-01-29T16:37:59.913Z,8.20
2019-01-29T16:40:33.909Z,8.20
2019-01-29T16:43:02.287Z,8.20
2019-01-29T16:45:34.759Z,8.20
2019-01-29T16:48:03.282Z,8.20
2019-01-29T16:50:31.589Z,8.20
2019-01-29T16:53:00.028Z,8.20
2019-01-29T16:55:28.427Z,8.10
2019-01-29T16:57:56.801Z,8.10
2019-01-29T17:00:32.891Z,8.10
2019-01-29T17:03:01.387Z,8.10
2019-01-29T17:05:30.423Z,8.10
2019-01-29T17:07:59.065Z,8.10
2019-01-29T17:10:32.371Z,8.00
2019-01-29T17:13:00.724Z,8.00
2019-01-29T17:15:30.988Z,8.00
2019-01-29T17:18:00.394Z,8.00
2019-01-29T17:20:33.758Z,8.00
2019-01-29T17:23:02.059Z,8.00
2019-01-29T17:25:30.460Z,8.00
2019-01-29T17:27:58.825Z,8.10
2019-01-29T17:30:32.818Z,8.00
2019-01-29T17:33:01.197Z,8.10
2019-01-29T17:35:29.559Z,8.10
2019-01-29T17:37:57.888Z,8.10
2019-01-29T17:40:26.234Z,8.10
2019-01-29T17:42:54.598Z,8.10
2019-01-29T17:45:28.400Z,8.10
2019-01-29T17:47:56.719Z,8.10
2019-01-29T17:50:36.687Z,8.10
2019-01-29T17:53:05.143Z,8.00
2019-01-29T17:55:34.760Z,8.00
2019-01-29T17:58:03.383Z,8.00
2019-01-29T18:00:33.382Z,8.00
2019-01-29T18:03:01.769Z,8.00
2019-01-29T18:05:30.144Z,8.00
2019-01-29T18:07:58.545Z,8.00
2019-01-29T18:10:26.921Z,8.00
2019-01-29T18:12:55.312Z,7.90
2019-01-29T18:15:26.990Z,7.90
2019-01-29T18:17:55.460Z,7.90
2019-01-29T18:20:23.902Z,7.90
2019-01-29T18:22:52.205Z,7.80
2019-01-29T18:25:20.665Z,7.80
2019-01-29T18:27:49.035Z,7.80
2019-01-29T18:30:26.103Z,7.80
2019-01-29T18:32:54.481Z,7.70
2019-01-29T18:35:22.875Z,7.70
2019-01-29T18:37:51.259Z,7.70
2019-01-29T18:40:25.197Z,7.70
2019-01-29T18:42:53.618Z,7.60
2019-01-29T18:45:21.922Z,7.60
2019-01-29T18:47:50.271Z,7.60
2019-01-29T18:50:19.718Z,7.50
2019-01-29T18:52:48.018Z,7.50
2019-01-29T18:55:16.422Z,7.40
2019-01-29T18:57:44.781Z,7.40
2019-01-29T19:00:24.461Z,7.30
2019-01-29T19:02:52.803Z,7.30
2019-01-29T19:05:23.182Z,7.20
2019-01-29T19:07:51.599Z,7.30
2019-01-29T19:10:20.996Z,7.20
2019-01-29T19:12:49.882Z,7.20
2019-01-29T19:15:24.178Z,7.10
2019-01-29T19:17:52.591Z,7.10
2019-01-29T19:20:25.482Z,7.10
2019-01-29T19:22:53.857Z,7.00
2019-01-29T19:25:22.164Z,7.00
2019-01-29T19:27:50.564Z,6.90
2019-01-29T19:30:21.851Z,6.90
2019-01-29T19:32:50.248Z,6.80
2019-01-29T19:35:18.627Z,6.80
2019-01-29T19:37:47.009Z,6.70
2019-01-29T19:40:17.041Z,6.70
2019-01-29T19:42:45.439Z,6.60
2019-01-29T19:45:22.401Z,6.60
2019-01-29T19:47:50.942Z,6.50
2019-01-29T19:50:21.425Z,6.40
2019-01-29T19:52:49.957Z,6.40
2019-01-29T19:55:18.333Z,6.30
2019-01-29T19:57:46.709Z,6.20
2019-01-29T20:00:18.108Z,6.20
2019-01-29T20:02:49.578Z,6.20
2019-01-29T20:05:18.029Z,6.10
2019-01-29T20:07:46.446Z,6.10
2019-01-29T20:10:16.954Z,6.00
2019-01-29T20:12:45.340Z,6.00
2019-01-29T20:15:16.169Z,5.90
2019-01-29T20:17:44.612Z,5.90
2019-01-29T20:20:16.609Z,5.80
2019-01-29T20:22:44.945Z,5.80
2019-01-29T20:25:13.260Z,5.80
2019-01-29T20:27:41.577Z,5.80
2019-01-29T20:30:13.562Z,5.80
2019-01-29T20:32:41.937Z,5.70
2019-01-29T20:35:10.319Z,5.70
2019-01-29T20:37:38.676Z,5.70
2019-01-29T20:40:10.247Z,5.70
2019-01-29T20:42:38.634Z,5.70
2019-01-29T20:45:09.562Z,5.70
2019-01-29T20:47:37.917Z,5.70
2019-01-29T20:50:09.531Z,5.70
2019-01-29T20:52:37.858Z,5.70
2019-01-29T20:55:25.776Z,5.70
2019-01-29T20:57:54.458Z,5.70
2019-01-29T21:00:28.149Z,5.70
2019-01-29T21:02:56.596Z,5.70
2019-01-29T21:05:25.026Z,5.60
2019-01-29T21:07:53.673Z,5.70
2019-01-29T21:10:23.182Z,5.70
2019-01-29T21:12:51.589Z,5.70
2019-01-29T21:15:21.916Z,5.60
2019-01-29T21:17:52.814Z,5.70
2019-01-29T21:20:23.483Z,5.60
2019-01-29T21:22:51.863Z,5.60
2019-01-29T21:25:20.664Z,5.60
2019-01-29T21:27:49.033Z,5.60
2019-01-29T21:30:20.528Z,5.60
2019-01-29T21:32:48.861Z,5.60
2019-01-29T21:35:17.273Z,5.50
2019-01-29T21:37:45.634Z,5.60
2019-01-29T21:40:15.878Z,5.60
2019-01-29T21:42:44.358Z,5.60
2019-01-29T21:45:23.154Z,5.60
2019-01-29T21:47:53.513Z,5.60
2019-01-29T21:50:24.058Z,5.60
2019-01-29T21:52:52.436Z,5.60
2019-01-29T21:55:20.831Z,5.60
2019-01-29T21:57:49.278Z,5.60
2019-01-29T22:00:20.905Z,5.60
2019-01-29T22:02:49.251Z,5.70
2019-01-29T22:05:17.658Z,5.70
2019-01-29T22:07:46.024Z,5.70
2019-01-29T22:10:15.840Z,5.70
2019-01-29T22:12:44.229Z,5.70
2019-01-29T22:15:24.114Z,5.70
2019-01-29T22:17:52.465Z,5.70
2019-01-29T22:20:22.597Z,5.70
2019-01-29T22:22:51.048Z,5.60
2019-01-29T22:25:20.715Z,5.60
2019-01-29T22:27:49.093Z,5.60
2019-01-29T22:30:35.058Z,5.60
2019-01-29T22:33:03.464Z,5.60
2019-01-29T22:35:32.193Z,5.50
2019-01-29T22:38:00.689Z,5.50
2019-01-29T22:40:30.508Z,5.50
2019-01-29T22:43:00.041Z,5.50
2019-01-29T22:45:28.432Z,5.60
2019-01-29T22:47:56.826Z,5.60
2019-01-29T22:50:29.911Z,5.60
2019-01-29T22:52:58.322Z,5.50
2019-01-29T22:55:26.693Z,5.60
2019-01-29T22:57:55.065Z,5.60
2019-01-29T23:00:47.479Z,5.60
2019-01-29T23:03:16.625Z,5.50
2019-01-29T23:05:47.039Z,5.50
2019-01-29T23:08:15.415Z,5.50
2019-01-29T23:10:44.037Z,5.50
2019-01-29T23:13:12.367Z,5.40
2019-01-29T23:15:40.728Z,5.40
2019-01-29T23:18:09.108Z,5.40
2019-01-29T23:20:40.644Z,5.40
2019-01-29T23:23:08.932Z,5.30
2019-01-29T23:25:37.310Z,5.30
2019-01-29T23:28:05.687Z,5.30
2019-01-29T23:30:34.072Z,5.30
2019-01-29T23:33:02.475Z,5.20
2019-01-29T23:35:30.905Z,5.20
2019-01-29T23:37:59.272Z,5.10
2019-01-29T23:40:27.661Z,5.10
2019-01-29T23:42:56.028Z,5.10
2019-01-29T23:45:24.395Z,5.00
2019-01-29T23:47:54.368Z,5.00
2019-01-29T23:50:22.724Z,5.00
2019-01-29T23:52:51.018Z,5.00
2019-01-29T23:55:19.298Z,5.00
2019-01-29T23:57:47.685Z,4.90
